Playa del Carmen, Mexico

12:56 AM CDT on September 19, 2014 (GMT -0500)
Hacienda Monte Cristo | Change Station
CLOSE
Current Station
Personal Weather Station
Location: Cozumel, QR
Elevation: 60 ft
Nearby Weather Stations

Elev 60 ft 20.55 °N, 86.92 °W | Updated 5 minutes ago

Partly Cloudy
Partly Cloudy
78.1 °F
Feels Like 81 °F
N
5.0
Wind Variable Wind from SE
Gusts 8.0 mph

Today
High -- | Low -- °F
--% Chance of Precip.
Yesterday
High -- | Low -- °F
Precip. -- in
6:36 AM 6:47 PM
Waning Crescent, 21% visible
Pressure 29.89 in
Visibility 7.0 miles
Clouds Few 1500 ft
Heat Index 81 °F
Dew Point 75 °F
Humidity 91%
Rainfall 0.00 in
Snow Depth Not available.
UV 0 out of 12
Pollen Not available.
Air Quality Not available.
Flu Activity Not available.
METAR MMUN 190544Z 14004KT 7SM FEW015 26/24 A2992 RMK SLP121 54000 963 8/500

More Conditions Fewer Conditions

Pressure 29.89 in
Visibility 7.0 miles
Clouds Few 1500 ft
Heat Index 81 °F
Dew Point 75 °F
Humidity 91%
Rainfall 0.00 in
Snow Depth Not available.
UV 0 out of 12
Pollen Not available.
Air Quality Not available.
Flu Activity Not available.
METAR MMUN 190544Z 14004KT 7SM FEW015 26/24 A2992 RMK SLP121 54000 963 8/500

More Conditions Fewer Conditions

10-Day Weather Forecast

Almanac

Astronomy

Sep. 19, 2014 Rise Set
Actual Time 6:36 AM CDT 6:47 PM CDT
Civil Twilight 6:14 AM CDT 7:09 PM CDT
Nautical Twilight 5:48 AM CDT 7:34 PM CDT
Astronomical Twilight 5:22 AM CDT 8:00 PM CDT
Moon 2:46 AM CDT 3:52 PM CDT
Length of Visible Light 12h 55m
Length of Day
12h 10m
Tomorrow will be 1m 10s shorter.
Waning Crescent, 21% of the Moon is Illuminated
Today
Waning Crescent
Sep 24
New
Oct 1
First Quarter
Oct 8
Full
Oct 15
Last Quarter

Yesterday's Extremes

Country Highs Country Lows

Community

WunderPhotos

Upload Photos

1,754,573 photos uploaded!

Nearby

Snow Depth

Not available.

Earthquake Activity

City Distance Mag. Time & Date
No recent earthquake activity has been reported nearby.
Minimum magnitude displayed is 2.5.

Coastal Water Temperatures

Place Temperature
No Stations Reporting

Nearby Weather Stations